createdAt,value
2017-09-16T00:00:48.375Z,10.33
2017-09-16T00:01:48.061Z,10.33
2017-09-16T00:02:48.680Z,10.31
2017-09-16T00:03:48.371Z,10.35
2017-09-16T00:04:48.049Z,10.44
2017-09-16T00:05:48.665Z,10.38
2017-09-16T00:06:48.664Z,10.37
2017-09-16T00:07:48.039Z,10.28
2017-09-16T00:08:48.352Z,10.28
2017-09-16T00:09:48.345Z,10.26
2017-09-16T00:10:48.341Z,10.2
2017-09-16T00:11:48.654Z,10.23
2017-09-16T00:12:48.341Z,10.16
2017-09-16T00:13:48.340Z,10.15
2017-09-16T00:14:48.397Z,10.15
2017-09-16T00:15:48.630Z,10.25
2017-09-16T00:16:48.011Z,10.19
2017-09-16T00:17:48.007Z,10.1
2017-09-16T00:18:48.320Z,10.04
2017-09-16T00:19:48.309Z,10.04
2017-09-16T00:20:48.617Z,9.98
2017-09-16T00:21:48.317Z,10.02
2017-09-16T00:22:48.310Z,9.98
2017-09-16T00:23:48.621Z,10.02
2017-09-16T00:24:50.209Z,9.92
2017-09-16T00:25:48.291Z,9.87
2017-09-16T00:26:48.290Z,9.84
2017-09-16T00:27:47.986Z,9.91
2017-09-16T00:28:48.288Z,9.89
2017-09-16T00:29:48.588Z,9.87
2017-09-16T00:30:48.285Z,9.92
2017-09-16T00:31:48.288Z,9.89
2017-09-16T00:32:48.590Z,9.91
2017-09-16T00:33:48.264Z,9.84
2017-09-16T00:34:48.571Z,9.83
2017-09-16T00:35:48.271Z,9.89
2017-09-16T00:36:48.565Z,9.91
2017-09-16T00:37:48.257Z,9.86
2017-09-16T00:38:48.567Z,9.87
2017-09-16T00:39:48.244Z,9.87
2017-09-16T00:40:48.248Z,9.89
2017-09-16T00:41:48.553Z,9.79
2017-09-16T00:42:48.545Z,9.83
2017-09-16T00:43:48.550Z,9.79
2017-09-16T00:44:50.131Z,9.83
2017-09-16T00:45:48.236Z,9.73
2017-09-16T00:46:48.236Z,9.8
2017-09-16T00:47:48.221Z,9.84
2017-09-16T00:48:48.237Z,9.83
2017-09-16T00:49:48.209Z,9.87
2017-09-16T00:50:48.516Z,9.87
2017-09-16T00:51:48.518Z,9.84
2017-09-16T00:52:47.891Z,9.79
2017-09-16T00:53:48.507Z,9.73
2017-09-16T00:54:48.505Z,9.77
2017-09-16T00:55:48.190Z,9.62
2017-09-16T00:56:48.184Z,9.58
2017-09-16T00:57:48.491Z,9.55
2017-09-16T00:58:48.495Z,9.59
2017-09-16T00:59:48.484Z,9.59
2017-09-16T01:00:48.183Z,9.61
2017-09-16T01:01:48.501Z,9.65
2017-09-16T01:02:48.485Z,9.62
2017-09-16T01:03:48.483Z,9.61
2017-09-16T01:04:48.472Z,9.5
2017-09-16T01:05:48.467Z,9.61
2017-09-16T01:06:48.157Z,9.54
2017-09-16T01:07:48.457Z,9.59
2017-09-16T01:08:48.465Z,9.62
2017-09-16T01:09:48.147Z,9.58
2017-09-16T01:10:48.451Z,9.55
2017-09-16T01:11:48.136Z,9.56
2017-09-16T01:12:48.471Z,9.56
2017-09-16T01:13:48.444Z,9.41
2017-09-16T01:14:49.793Z,9.46
2017-09-16T01:15:48.126Z,9.46
2017-09-16T01:16:48.128Z,9.43
2017-09-16T01:17:48.117Z,9.44
2017-09-16T01:18:48.434Z,9.41
2017-09-16T01:19:48.412Z,9.36
2017-09-16T01:20:48.100Z,9.46
2017-09-16T01:21:48.407Z,9.37
2017-09-16T01:22:48.090Z,9.37
2017-09-16T01:23:48.405Z,9.48
2017-09-16T01:24:48.098Z,9.46
2017-09-16T01:25:48.389Z,9.47
2017-09-16T01:26:48.079Z,9.48
2017-09-16T01:27:48.080Z,9.47
2017-09-16T01:28:48.071Z,9.43
2017-09-16T01:29:48.064Z,9.37
2017-09-16T01:30:48.369Z,9.46
2017-09-16T01:31:48.059Z,9.47
2017-09-16T01:32:47.759Z,9.39
2017-09-16T01:33:48.357Z,9.44
2017-09-16T01:34:48.060Z,9.37
2017-09-16T01:35:48.352Z,9.36
2017-09-16T01:36:48.351Z,9.36
2017-09-16T01:37:48.348Z,9.4
2017-09-16T01:38:47.734Z,9.29
2017-09-16T01:39:48.336Z,9.31
2017-09-16T01:40:48.022Z,9.34
2017-09-16T01:41:48.328Z,9.36
2017-09-16T01:42:48.020Z,9.37
2017-09-16T01:43:48.326Z,9.37
2017-09-16T01:44:47.702Z,9.43
2017-09-16T01:45:48.334Z,9.46
2017-09-16T01:46:48.311Z,9.46
2017-09-16T01:47:48.009Z,9.41
2017-09-16T01:48:47.998Z,9.4
2017-09-16T01:49:48.299Z,9.37
2017-09-16T01:50:48.291Z,9.43
2017-09-16T01:51:47.989Z,9.4
2017-09-16T01:52:47.975Z,9.31
2017-09-16T01:53:48.281Z,9.26
2017-09-16T01:54:48.280Z,9.25
2017-09-16T01:55:48.271Z,9.22
2017-09-16T01:56:47.653Z,9.14
2017-09-16T01:57:47.649Z,9.08
2017-09-16T01:58:48.272Z,9.13
2017-09-16T01:59:48.254Z,9.1
2017-09-16T02:00:47.982Z,9.06
2017-09-16T02:01:47.955Z,9.1
2017-09-16T02:02:48.249Z,9.02
2017-09-16T02:03:48.247Z,9
2017-09-16T02:04:48.233Z,8.97
2017-09-16T02:05:48.232Z,9.03
2017-09-16T02:06:47.927Z,8.97
2017-09-16T02:07:48.231Z,8.92
2017-09-16T02:08:48.241Z,8.89
2017-09-16T02:09:48.219Z,8.97
2017-09-16T02:10:48.215Z,9.02
2017-09-16T02:11:47.900Z,9
2017-09-16T02:12:48.206Z,8.94
2017-09-16T02:13:48.213Z,9.02
2017-09-16T02:14:48.207Z,8.88
2017-09-16T02:15:50.059Z,8.87
2017-09-16T02:16:48.222Z,8.85
2017-09-16T02:17:47.886Z,8.91
2017-09-16T02:18:47.887Z,8.89
2017-09-16T02:19:48.184Z,8.89
2017-09-16T02:20:48.181Z,8.88
2017-09-16T02:21:48.187Z,8.94
2017-09-16T02:22:48.161Z,9.04
2017-09-16T02:23:48.164Z,8.97
2017-09-16T02:24:48.168Z,8.92
2017-09-16T02:25:47.866Z,8.85
2017-09-16T02:26:48.158Z,8.91
2017-09-16T02:27:47.849Z,8.87
2017-09-16T02:28:47.842Z,8.88
2017-09-16T02:29:47.520Z,8.82
2017-09-16T02:30:47.836Z,8.71
2017-09-16T02:31:48.131Z,8.71
2017-09-16T02:32:48.130Z,8.78
2017-09-16T02:33:47.834Z,8.71
2017-09-16T02:34:48.119Z,8.71
2017-09-16T02:35:48.110Z,8.73
2017-09-16T02:36:47.833Z,8.67
2017-09-16T02:37:48.108Z,8.73
2017-09-16T02:38:48.097Z,8.66
2017-09-16T02:39:48.095Z,8.61
2017-09-16T02:40:48.093Z,8.66
2017-09-16T02:41:48.085Z,8.7
2017-09-16T02:42:48.082Z,8.6
2017-09-16T02:43:48.077Z,8.66
2017-09-16T02:44:47.766Z,8.69
2017-09-16T02:45:49.024Z,8.78
2017-09-16T02:46:48.070Z,8.81
2017-09-16T02:47:48.061Z,8.84
2017-09-16T02:48:48.054Z,8.81
2017-09-16T02:49:47.742Z,8.79
2017-09-16T02:50:47.738Z,8.84
2017-09-16T02:51:47.738Z,8.69
2017-09-16T02:52:47.733Z,8.73
2017-09-16T02:53:48.045Z,8.78
2017-09-16T02:54:48.035Z,8.79
2017-09-16T02:55:48.028Z,8.71
2017-09-16T02:56:48.021Z,8.61
2017-09-16T02:57:47.710Z,8.7
2017-09-16T02:58:48.021Z,8.67
2017-09-16T02:59:48.020Z,8.64
2017-09-16T03:00:48.007Z,8.58
2017-09-16T03:01:48.010Z,8.63
2017-09-16T03:02:47.999Z,8.61
2017-09-16T03:03:47.682Z,8.63
2017-09-16T03:04:47.987Z,8.58
2017-09-16T03:05:47.368Z,8.55
2017-09-16T03:06:47.978Z,8.53
2017-09-16T03:07:47.666Z,8.63
2017-09-16T03:08:47.667Z,8.69
2017-09-16T03:09:47.666Z,8.7
2017-09-16T03:10:47.675Z,8.84
2017-09-16T03:11:47.653Z,8.84
2017-09-16T03:12:47.965Z,8.85
2017-09-16T03:13:47.337Z,8.79
2017-09-16T03:14:47.953Z,8.73
2017-09-16T03:15:47.966Z,8.74
2017-09-16T03:16:47.630Z,8.74
2017-09-16T03:17:47.632Z,8.74
2017-09-16T03:18:47.618Z,8.7
2017-09-16T03:19:47.641Z,8.69
2017-09-16T03:20:47.611Z,8.85
2017-09-16T03:21:47.915Z,8.71
2017-09-16T03:22:47.910Z,8.78
2017-09-16T03:23:47.596Z,8.73
2017-09-16T03:24:47.914Z,8.78
2017-09-16T03:25:47.914Z,8.84
2017-09-16T03:26:47.579Z,8.85
2017-09-16T03:27:47.579Z,8.94
2017-09-16T03:28:47.584Z,8.85
2017-09-16T03:29:47.875Z,8.97
2017-09-16T03:30:47.890Z,8.99
2017-09-16T03:31:47.561Z,9.06
2017-09-16T03:32:47.553Z,9.08
2017-09-16T03:33:47.872Z,9.14
2017-09-16T03:34:47.857Z,9.1
2017-09-16T03:35:47.232Z,9.19
2017-09-16T03:36:47.532Z,9.19
2017-09-16T03:37:47.846Z,9.19
2017-09-16T03:38:47.834Z,9.29
2017-09-16T03:39:47.836Z,9.32
2017-09-16T03:40:47.828Z,9.4
2017-09-16T03:41:47.838Z,9.34
2017-09-16T03:42:47.507Z,9.47
2017-09-16T03:43:47.822Z,9.44
2017-09-16T03:44:47.931Z,9.58
2017-09-16T03:45:47.502Z,9.55
2017-09-16T03:46:51.051Z,9.48
2017-09-16T03:47:47.486Z,9.55
2017-09-16T03:48:47.180Z,9.61
2017-09-16T03:49:47.169Z,9.55
2017-09-16T03:50:47.790Z,9.58
2017-09-16T03:51:47.171Z,9.5
2017-09-16T03:52:47.781Z,9.56
2017-09-16T03:53:47.770Z,9.62
2017-09-16T03:54:47.462Z,9.58
2017-09-16T03:55:47.763Z,9.58
2017-09-16T03:56:47.475Z,9.56
2017-09-16T03:57:47.751Z,9.58
2017-09-16T03:58:47.439Z,9.59
2017-09-16T03:59:47.743Z,9.59
2017-09-16T04:00:47.744Z,9.5
2017-09-16T04:01:47.738Z,9.55
2017-09-16T04:02:47.740Z,9.59
2017-09-16T04:03:47.420Z,9.64
2017-09-16T04:04:47.414Z,9.68
2017-09-16T04:05:47.728Z,9.66
2017-09-16T04:06:47.717Z,9.55
2017-09-16T04:07:47.714Z,9.54
2017-09-16T04:08:47.403Z,9.55
2017-09-16T04:09:47.394Z,9.51
2017-09-16T04:10:47.699Z,9.54
2017-09-16T04:11:47.079Z,9.4
2017-09-16T04:12:47.700Z,9.48
2017-09-16T04:13:47.385Z,9.37
2017-09-16T04:14:47.384Z,9.32
2017-09-16T04:15:47.370Z,9.31
2017-09-16T04:16:47.691Z,9.32
2017-09-16T04:17:47.707Z,9.32
2017-09-16T04:18:47.683Z,9.29
2017-09-16T04:19:47.354Z,9.31
2017-09-16T04:20:47.688Z,9.37
2017-09-16T04:21:47.661Z,9.43
2017-09-16T04:22:47.660Z,9.34
2017-09-16T04:23:47.338Z,9.46
2017-09-16T04:24:47.654Z,9.41
2017-09-16T04:25:47.666Z,9.4
2017-09-16T04:26:47.635Z,9.47
2017-09-16T04:27:47.322Z,9.55
2017-09-16T04:28:47.630Z,9.58
2017-09-16T04:29:47.322Z,9.58
2017-09-16T04:30:47.616Z,9.54
2017-09-16T04:31:47.614Z,9.58
2017-09-16T04:32:47.299Z,9.48
2017-09-16T04:33:47.300Z,9.32
2017-09-16T04:34:47.607Z,9.16
2017-09-16T04:35:47.603Z,9.13
2017-09-16T04:36:47.286Z,9.11
2017-09-16T04:37:47.587Z,9.06
2017-09-16T04:38:47.290Z,9
2017-09-16T04:39:47.577Z,9.02
2017-09-16T04:40:47.584Z,9.08
2017-09-16T04:41:47.575Z,9.08
2017-09-16T04:42:47.586Z,9.06
2017-09-16T04:43:47.270Z,9.23
2017-09-16T04:44:46.960Z,9.18
2017-09-16T04:45:47.556Z,9.19
2017-09-16T04:46:47.557Z,9.29
2017-09-16T04:47:47.854Z,9.31
2017-09-16T04:48:46.922Z,9.23
2017-09-16T04:49:47.536Z,9.22
2017-09-16T04:50:47.534Z,9.19
2017-09-16T04:51:47.537Z,9.18
2017-09-16T04:52:48.325Z,9.14
2017-09-16T04:53:47.212Z,9.22
2017-09-16T04:54:47.531Z,9.19
2017-09-16T04:55:47.513Z,9.19
2017-09-16T04:56:47.201Z,9.14
2017-09-16T04:57:47.205Z,9.22
2017-09-16T04:58:47.505Z,9.21
2017-09-16T04:59:47.504Z,9.14
2017-09-16T05:00:46.876Z,9.02
2017-09-16T05:01:47.182Z,9.06
2017-09-16T05:02:47.481Z,9.06
2017-09-16T05:03:47.175Z,8.92
2017-09-16T05:04:47.471Z,9.06
2017-09-16T05:05:47.158Z,8.94
2017-09-16T05:06:47.155Z,9
2017-09-16T05:07:47.458Z,8.97
2017-09-16T05:08:47.149Z,8.87
2017-09-16T05:09:47.148Z,8.82
2017-09-16T05:10:47.139Z,8.88
2017-09-16T05:11:47.444Z,8.91
2017-09-16T05:12:47.127Z,8.91
2017-09-16T05:13:47.431Z,8.89
2017-09-16T05:14:47.430Z,8.91
2017-09-16T05:15:47.419Z,8.87
2017-09-16T05:16:47.419Z,8.84
2017-09-16T05:17:48.668Z,8.84
2017-09-16T05:18:47.098Z,8.91
2017-09-16T05:19:46.793Z,8.82
2017-09-16T05:20:47.404Z,8.91
2017-09-16T05:21:47.396Z,8.88
2017-09-16T05:22:47.080Z,8.91
2017-09-16T05:23:47.390Z,8.89
2017-09-16T05:24:47.085Z,8.87
2017-09-16T05:25:47.083Z,8.89
2017-09-16T05:26:47.368Z,8.92
2017-09-16T05:27:47.362Z,9
2017-09-16T05:28:47.062Z,8.97
2017-09-16T05:29:47.352Z,9.02
2017-09-16T05:30:47.045Z,9.06
2017-09-16T05:31:47.347Z,8.97
2017-09-16T05:32:46.724Z,8.95
2017-09-16T05:33:47.331Z,9.02
2017-09-16T05:34:47.327Z,9
2017-09-16T05:35:47.322Z,9.04
2017-09-16T05:36:47.323Z,9.13
2017-09-16T05:37:47.004Z,9.13
2017-09-16T05:38:46.999Z,9.19
2017-09-16T05:39:46.994Z,9.16
2017-09-16T05:40:46.684Z,9.18
2017-09-16T05:41:47.297Z,9.32
2017-09-16T05:42:47.298Z,9.41
2017-09-16T05:43:47.302Z,9.51
2017-09-16T05:44:46.970Z,9.54
2017-09-16T05:45:47.289Z,9.61
2017-09-16T05:46:47.268Z,9.59
2017-09-16T05:47:47.267Z,9.76
2017-09-16T05:48:47.258Z,9.84
2017-09-16T05:49:46.948Z,9.83
2017-09-16T05:50:46.945Z,9.89
2017-09-16T05:51:47.270Z,9.89
2017-09-16T05:52:47.252Z,9.99
2017-09-16T05:53:46.934Z,10.02
2017-09-16T05:54:47.244Z,10.1
2017-09-16T05:55:46.922Z,10.09
2017-09-16T05:56:47.234Z,10.09
2017-09-16T05:57:47.257Z,10.1
2017-09-16T05:58:47.232Z,10.17
2017-09-16T05:59:47.240Z,10.09
2017-09-16T06:00:47.215Z,10.15
2017-09-16T06:01:47.214Z,10.17
2017-09-16T06:02:47.205Z,10.16
2017-09-16T06:03:46.585Z,10.19
2017-09-16T06:04:46.889Z,10.19
2017-09-16T06:05:46.890Z,10.31
2017-09-16T06:06:46.886Z,10.31
2017-09-16T06:07:47.188Z,10.3
2017-09-16T06:08:47.188Z,10.35
2017-09-16T06:09:46.885Z,10.35
2017-09-16T06:10:46.876Z,10.34
2017-09-16T06:11:47.175Z,10.34
2017-09-16T06:12:47.179Z,10.41
2017-09-16T06:13:47.180Z,10.49
2017-09-16T06:14:47.178Z,10.51
2017-09-16T06:15:46.883Z,10.54
2017-09-16T06:16:47.163Z,10.61
2017-09-16T06:17:46.853Z,10.6
2017-09-16T06:18:47.402Z,10.67
2017-09-16T06:19:47.149Z,10.64
2017-09-16T06:20:46.838Z,10.79
2017-09-16T06:21:46.835Z,10.87
2017-09-16T06:22:46.531Z,10.75
2017-09-16T06:23:46.835Z,10.74
2017-09-16T06:24:47.148Z,10.74
2017-09-16T06:25:46.831Z,10.72
2017-09-16T06:26:46.512Z,10.71
2017-09-16T06:27:46.816Z,10.71
2017-09-16T06:28:47.148Z,10.75
2017-09-16T06:29:46.814Z,10.68
2017-09-16T06:30:47.127Z,10.69
2017-09-16T06:31:47.115Z,10.57
2017-09-16T06:32:47.114Z,10.51
2017-09-16T06:33:47.109Z,10.51
2017-09-16T06:34:46.802Z,10.44
2017-09-16T06:35:46.796Z,10.44
2017-09-16T06:36:46.791Z,10.42
2017-09-16T06:37:46.791Z,10.46
2017-09-16T06:38:47.101Z,10.49
2017-09-16T06:39:47.106Z,10.57
2017-09-16T06:40:47.089Z,10.54
2017-09-16T06:41:47.097Z,10.46
2017-09-16T06:42:47.080Z,10.53
2017-09-16T06:43:47.075Z,10.74
2017-09-16T06:44:47.073Z,10.81
2017-09-16T06:45:47.073Z,11.05
2017-09-16T06:46:47.065Z,11.14
2017-09-16T06:47:46.765Z,11.27
2017-09-16T06:48:47.617Z,11.3
2017-09-16T06:49:46.751Z,11.47
2017-09-16T06:50:47.055Z,11.65
2017-09-16T06:51:47.092Z,11.87
2017-09-16T06:52:46.752Z,11.94
2017-09-16T06:53:47.058Z,12.03
2017-09-16T06:54:46.747Z,12.28
2017-09-16T06:55:47.047Z,12.5
2017-09-16T06:56:47.046Z,12.75
2017-09-16T06:57:47.046Z,12.82
2017-09-16T06:58:46.424Z,13.18
2017-09-16T06:59:46.433Z,13.37
2017-09-16T07:00:46.740Z,13.57
2017-09-16T07:01:47.057Z,13.81
2017-09-16T07:02:46.731Z,14.28
2017-09-16T07:03:46.427Z,14.69
2017-09-16T07:04:47.035Z,15.14
2017-09-16T07:05:46.420Z,15.46
2017-09-16T07:06:46.739Z,15.58
2017-09-16T07:07:47.044Z,15.52
2017-09-16T07:08:46.740Z,15.52
2017-09-16T07:09:46.429Z,15.55
2017-09-16T07:10:47.052Z,16
2017-09-16T07:11:47.061Z,16.42
2017-09-16T07:12:46.740Z,16.89
2017-09-16T07:13:47.056Z,16.94
2017-09-16T07:14:47.056Z,17.2
2017-09-16T07:15:47.055Z,17.48
2017-09-16T07:16:46.749Z,17.9
2017-09-16T07:17:47.060Z,18.16
2017-09-16T07:18:48.649Z,18.28
2017-09-16T07:19:46.749Z,18.11
2017-09-16T07:20:46.753Z,17.87
2017-09-16T07:21:46.755Z,17.64
2017-09-16T07:22:46.763Z,17.38
2017-09-16T07:23:47.069Z,16.94
2017-09-16T07:24:47.086Z,16.65
2017-09-16T07:25:46.764Z,16.31
2017-09-16T07:26:46.769Z,16.08
2017-09-16T07:27:46.768Z,16.36
2017-09-16T07:28:47.088Z,16.68
2017-09-16T07:29:47.089Z,16.72
2017-09-16T07:30:46.775Z,16.51
2017-09-16T07:31:46.803Z,16.32
2017-09-16T07:32:47.093Z,16.04
2017-09-16T07:33:47.091Z,15.83
2017-09-16T07:34:47.104Z,15.64
2017-09-16T07:35:46.481Z,15.43
2017-09-16T07:36:47.099Z,15.14
2017-09-16T07:37:46.790Z,14.89
2017-09-16T07:38:47.098Z,14.53
2017-09-16T07:39:46.803Z,14.29
2017-09-16T07:40:46.492Z,14.12
2017-09-16T07:41:46.804Z,13.99
2017-09-16T07:42:47.109Z,13.87
2017-09-16T07:43:46.814Z,13.71
2017-09-16T07:44:46.805Z,13.52
2017-09-16T07:45:46.809Z,13.47
2017-09-16T07:46:47.114Z,13.31
2017-09-16T07:47:46.493Z,13.18
2017-09-16T07:48:48.909Z,13.27
2017-09-16T07:49:47.115Z,13.39
2017-09-16T07:50:47.115Z,13.46
2017-09-16T07:51:47.121Z,13.54
2017-09-16T07:52:46.808Z,13.68
2017-09-16T07:53:46.813Z,13.75
2017-09-16T07:54:46.811Z,13.71
2017-09-16T07:55:46.810Z,13.87
2017-09-16T07:56:47.119Z,13.85
2017-09-16T07:57:46.800Z,13.95
2017-09-16T07:58:46.813Z,14
2017-09-16T07:59:46.797Z,14.07
2017-09-16T08:00:47.109Z,14.08
2017-09-16T08:01:47.128Z,14.12
2017-09-16T08:02:46.799Z,14.12
2017-09-16T08:03:47.109Z,13.97
2017-09-16T08:04:46.804Z,13.9
2017-09-16T08:05:46.802Z,13.78
2017-09-16T08:06:46.798Z,13.93
2017-09-16T08:07:47.115Z,14.03
2017-09-16T08:08:47.109Z,13.97
2017-09-16T08:09:46.492Z,14.05
2017-09-16T08:10:47.113Z,14.1
2017-09-16T08:11:47.117Z,14.04
2017-09-16T08:12:46.798Z,13.99
2017-09-16T08:13:47.116Z,14.15
2017-09-16T08:14:46.803Z,14.1
2017-09-16T08:15:47.119Z,14.22
2017-09-16T08:16:46.494Z,14.29
2017-09-16T08:17:46.797Z,14.17
2017-09-16T08:18:49.265Z,14.14
2017-09-16T08:19:47.110Z,14.22
2017-09-16T08:20:46.800Z,14.2
2017-09-16T08:21:46.794Z,14.18
2017-09-16T08:22:47.108Z,14.26
2017-09-16T08:23:46.797Z,14.2
2017-09-16T08:24:47.108Z,14.29
2017-09-16T08:25:47.131Z,14.25
2017-09-16T08:26:47.105Z,14.2
2017-09-16T08:27:47.105Z,14.25
2017-09-16T08:28:46.799Z,14.33
2017-09-16T08:29:47.117Z,14.22
2017-09-16T08:30:46.800Z,14.29
2017-09-16T08:31:46.804Z,14.22
2017-09-16T08:32:47.111Z,14.4
2017-09-16T08:33:46.802Z,14.37
2017-09-16T08:34:46.799Z,14.35
2017-09-16T08:35:46.801Z,14.54
2017-09-16T08:36:47.113Z,14.69
2017-09-16T08:37:47.110Z,14.69
2017-09-16T08:38:47.108Z,14.91
2017-09-16T08:39:46.802Z,14.97
2017-09-16T08:40:47.109Z,15.07
2017-09-16T08:41:46.798Z,15.22
2017-09-16T08:42:46.806Z,15.31
2017-09-16T08:43:46.803Z,15.42
2017-09-16T08:44:46.797Z,15.44
2017-09-16T08:45:47.115Z,15.47
2017-09-16T08:46:47.115Z,15.57
2017-09-16T08:47:46.806Z,15.57
2017-09-16T08:48:47.113Z,15.52
2017-09-16T08:49:47.122Z,15.54
2017-09-16T08:50:46.808Z,15.61
2017-09-16T08:51:46.808Z,15.62
2017-09-16T08:52:46.811Z,15.64
2017-09-16T08:53:46.811Z,15.79
2017-09-16T08:54:47.117Z,15.82
2017-09-16T08:55:47.130Z,15.9
2017-09-16T08:56:46.813Z,15.92
2017-09-16T08:57:47.128Z,16.01
2017-09-16T08:58:47.125Z,16.08
2017-09-16T08:59:46.814Z,16.08
2017-09-16T09:00:46.817Z,16.08
2017-09-16T09:01:46.817Z,16.1
2017-09-16T09:02:47.125Z,16.16
2017-09-16T09:03:46.820Z,16.28
2017-09-16T09:04:47.137Z,16.35
2017-09-16T09:05:47.140Z,16.42
2017-09-16T09:06:47.136Z,16.51
2017-09-16T09:07:47.136Z,16.57
2017-09-16T09:08:46.829Z,16.56
2017-09-16T09:09:46.836Z,16.64
2017-09-16T09:10:47.137Z,16.64
2017-09-16T09:11:47.149Z,16.74
2017-09-16T09:12:47.188Z,16.66
2017-09-16T09:13:46.839Z,16.64
2017-09-16T09:14:47.143Z,16.49
2017-09-16T09:15:46.841Z,16.39
2017-09-16T09:16:47.148Z,16.43
2017-09-16T09:17:46.846Z,16.56
2017-09-16T09:18:46.842Z,16.65
2017-09-16T09:19:51.156Z,16.71
2017-09-16T09:20:47.150Z,16.76
2017-09-16T09:21:46.857Z,16.76
2017-09-16T09:22:46.856Z,16.66
2017-09-16T09:23:46.861Z,16.75
2017-09-16T09:24:47.163Z,16.76
2017-09-16T09:25:47.163Z,16.89
2017-09-16T09:26:46.875Z,16.81
2017-09-16T09:27:46.865Z,16.94
2017-09-16T09:28:47.201Z,16.76
2017-09-16T09:29:47.179Z,16.86
2017-09-16T09:30:47.189Z,16.81
2017-09-16T09:31:46.874Z,16.79
2017-09-16T09:32:46.875Z,16.87
2017-09-16T09:33:47.191Z,16.87
2017-09-16T09:34:47.198Z,16.78
2017-09-16T09:35:47.191Z,16.83
2017-09-16T09:36:46.877Z,16.75
2017-09-16T09:37:46.887Z,16.87
2017-09-16T09:38:47.202Z,16.94
2017-09-16T09:39:47.200Z,17.06
2017-09-16T09:40:46.893Z,17.11
2017-09-16T09:41:46.887Z,17.2
2017-09-16T09:42:46.891Z,17.26
2017-09-16T09:43:46.891Z,17.33
2017-09-16T09:44:47.263Z,17.38
2017-09-16T09:45:47.202Z,17.3
2017-09-16T09:46:46.906Z,17.05
2017-09-16T09:47:46.902Z,16.93
2017-09-16T09:48:47.209Z,16.84
2017-09-16T09:49:46.596Z,16.76
2017-09-16T09:50:46.908Z,16.84
2017-09-16T09:51:47.218Z,16.66
2017-09-16T09:52:47.225Z,16.54
2017-09-16T09:53:46.913Z,16.56
2017-09-16T09:54:46.994Z,16.68
2017-09-16T09:55:47.229Z,16.84
2017-09-16T09:56:46.926Z,17.01
2017-09-16T09:57:47.231Z,17.34
2017-09-16T09:58:47.234Z,17.54
2017-09-16T09:59:46.928Z,17.72
2017-09-16T10:00:47.234Z,17.94
2017-09-16T10:01:46.932Z,18
2017-09-16T10:02:47.240Z,18.15
2017-09-16T10:03:46.933Z,18.1
2017-09-16T10:04:46.937Z,18.2
2017-09-16T10:05:46.979Z,18.03
2017-09-16T10:06:46.638Z,17.79
2017-09-16T10:07:47.256Z,17.59
2017-09-16T10:08:46.950Z,17.42
2017-09-16T10:09:46.651Z,17.39
2017-09-16T10:10:46.963Z,17.34
2017-09-16T10:11:46.965Z,17.3
2017-09-16T10:12:46.967Z,17.38
2017-09-16T10:13:46.964Z,17.41
2017-09-16T10:14:47.278Z,17.39
2017-09-16T10:15:47.273Z,17.29
2017-09-16T10:16:47.278Z,17.24
2017-09-16T10:17:47.286Z,17.23
2017-09-16T10:18:46.663Z,17.14
2017-09-16T10:19:46.991Z,17.08
2017-09-16T10:20:48.100Z,16.81
2017-09-16T10:21:46.982Z,16.76
2017-09-16T10:22:47.289Z,16.74
2017-09-16T10:23:47.040Z,16.69
2017-09-16T10:24:46.987Z,16.58
2017-09-16T10:25:47.334Z,16.47
2017-09-16T10:26:47.304Z,16.39
2017-09-16T10:27:47.318Z,16.47
2017-09-16T10:28:47.310Z,16.5
2017-09-16T10:29:46.994Z,16.53
2017-09-16T10:30:47.319Z,16.72
2017-09-16T10:31:46.693Z,16.66
2017-09-16T10:32:47.316Z,16.57
2017-09-16T10:33:46.704Z,16.6
2017-09-16T10:34:47.008Z,16.74
2017-09-16T10:35:46.703Z,16.83
2017-09-16T10:36:47.008Z,17.11
2017-09-16T10:37:47.320Z,17.31
2017-09-16T10:38:47.011Z,17.48
2017-09-16T10:39:47.013Z,17.63
2017-09-16T10:40:47.034Z,17.74
2017-09-16T10:41:46.712Z,17.8
2017-09-16T10:42:47.333Z,17.68
2017-09-16T10:43:47.352Z,17.57
2017-09-16T10:44:47.024Z,17.6
2017-09-16T10:45:47.023Z,17.65
2017-09-16T10:46:47.027Z,17.68
2017-09-16T10:47:47.355Z,17.6
2017-09-16T10:48:47.031Z,17.7
2017-09-16T10:49:47.344Z,17.74
2017-09-16T10:50:48.307Z,17.67
2017-09-16T10:51:47.042Z,17.74
2017-09-16T10:52:47.356Z,17.64
2017-09-16T10:53:47.045Z,17.71
2017-09-16T10:54:47.358Z,17.72
2017-09-16T10:55:47.050Z,17.8
2017-09-16T10:56:47.362Z,17.74
2017-09-16T10:57:47.053Z,17.76
2017-09-16T10:58:46.748Z,17.79
2017-09-16T10:59:46.749Z,17.7
2017-09-16T11:00:47.112Z,17.72
2017-09-16T11:01:47.372Z,17.71
2017-09-16T11:02:47.063Z,17.85
2017-09-16T11:03:47.374Z,17.94
2017-09-16T11:04:47.376Z,18.13
2017-09-16T11:05:47.429Z,18.22
2017-09-16T11:06:47.393Z,18.2
2017-09-16T11:07:47.074Z,18.19
2017-09-16T11:08:47.395Z,18.2
2017-09-16T11:09:47.082Z,18.28
2017-09-16T11:10:47.392Z,18.41
2017-09-16T11:11:47.090Z,18.34
2017-09-16T11:12:47.090Z,18.44
2017-09-16T11:13:47.397Z,18.43
2017-09-16T11:14:47.406Z,18.41
2017-09-16T11:15:49.002Z,18.49
2017-09-16T11:16:47.413Z,18.38
2017-09-16T11:17:47.409Z,18.35
2017-09-16T11:18:47.414Z,18.35
2017-09-16T11:19:47.420Z,18.44
2017-09-16T11:20:47.416Z,18.31
2017-09-16T11:21:47.428Z,18.37
2017-09-16T11:22:46.802Z,18.33
2017-09-16T11:23:47.421Z,18.34
2017-09-16T11:24:47.070Z,18.41
2017-09-16T11:25:47.113Z,18.41
2017-09-16T11:26:47.119Z,18.37
2017-09-16T11:27:47.120Z,18.35
2017-09-16T11:28:47.127Z,18.25
2017-09-16T11:29:47.133Z,18.15
2017-09-16T11:30:46.876Z,18.2
2017-09-16T11:31:47.231Z,18.26
2017-09-16T11:32:47.133Z,18.33
2017-09-16T11:33:47.137Z,18.38
2017-09-16T11:34:47.146Z,18.52
2017-09-16T11:35:47.137Z,18.66
2017-09-16T11:36:47.148Z,18.65
2017-09-16T11:37:47.144Z,18.59
2017-09-16T11:38:47.459Z,18.63
2017-09-16T11:39:47.466Z,18.66
2017-09-16T11:40:47.470Z,18.71
2017-09-16T11:41:47.159Z,18.71
2017-09-16T11:42:47.168Z,18.9
2017-09-16T11:43:46.851Z,19.04
2017-09-16T11:44:47.485Z,18.99
2017-09-16T11:45:46.856Z,19.11
2017-09-16T11:46:47.167Z,19.04
2017-09-16T11:47:47.058Z,18.93
2017-09-16T11:48:47.191Z,18.89
2017-09-16T11:49:47.492Z,18.62
2017-09-16T11:50:47.188Z,18.41
2017-09-16T11:51:50.898Z,18.16
2017-09-16T11:52:47.190Z,17.89
2017-09-16T11:53:47.206Z,17.72
2017-09-16T11:54:47.119Z,17.6
2017-09-16T11:55:47.199Z,17.45
2017-09-16T11:56:47.208Z,17.33
2017-09-16T11:57:47.385Z,17.22
2017-09-16T11:58:47.209Z,17.19
2017-09-16T11:59:47.045Z,17.11
2017-09-16T12:00:47.207Z,17.33
2017-09-16T12:01:47.513Z,17.34
2017-09-16T12:02:47.215Z,17.49
2017-09-16T12:03:47.213Z,17.65
2017-09-16T12:04:47.219Z,17.64
2017-09-16T12:05:47.546Z,17.79
2017-09-16T12:06:47.217Z,17.95
2017-09-16T12:07:47.231Z,18.04
2017-09-16T12:08:47.243Z,18.03
2017-09-16T12:09:47.227Z,18.15
2017-09-16T12:10:47.539Z,18.2
2017-09-16T12:11:47.242Z,18.16
2017-09-16T12:12:47.561Z,18
2017-09-16T12:13:47.555Z,18.01
2017-09-16T12:14:46.925Z,17.95
2017-09-16T12:15:47.236Z,17.82
2017-09-16T12:16:47.557Z,17.78
2017-09-16T12:17:47.240Z,17.95
2017-09-16T12:18:47.560Z,18.03
2017-09-16T12:19:47.246Z,18.2
2017-09-16T12:20:47.570Z,18.47
2017-09-16T12:21:51.554Z,18.52
2017-09-16T12:22:47.259Z,18.63
2017-09-16T12:23:47.253Z,18.89
2017-09-16T12:24:47.566Z,18.95
2017-09-16T12:25:47.565Z,19
2017-09-16T12:26:47.255Z,19.15
2017-09-16T12:27:47.301Z,19.14
2017-09-16T12:28:47.590Z,19.16
2017-09-16T12:29:47.575Z,19.11
2017-09-16T12:30:47.622Z,19.11
2017-09-16T12:31:47.593Z,19.12
2017-09-16T12:32:47.585Z,19.15
2017-09-16T12:33:47.288Z,19.18
2017-09-16T12:34:47.279Z,19.19
2017-09-16T12:35:47.282Z,19.27
2017-09-16T12:36:47.299Z,19.3
2017-09-16T12:37:47.599Z,19.36
2017-09-16T12:38:47.292Z,19.34
2017-09-16T12:39:47.606Z,19.39
2017-09-16T12:40:47.608Z,19.24
2017-09-16T12:41:47.620Z,19.14
2017-09-16T12:42:47.310Z,19.12
2017-09-16T12:43:47.309Z,18.93
2017-09-16T12:44:47.637Z,18.98
2017-09-16T12:45:47.682Z,18.7
2017-09-16T12:46:47.324Z,18.7
2017-09-16T12:47:47.879Z,18.5
2017-09-16T12:48:47.604Z,18.41
2017-09-16T12:49:48.110Z,18.43
2017-09-16T12:50:47.676Z,18.45
2017-09-16T12:51:48.193Z,18.49
2017-09-16T12:52:48.528Z,18.47
2017-09-16T12:53:47.422Z,18.55
2017-09-16T12:54:47.369Z,18.44
2017-09-16T12:55:47.091Z,18.43
2017-09-16T12:56:47.339Z,18.23
2017-09-16T12:57:47.341Z,18.05
2017-09-16T12:58:47.650Z,17.74
2017-09-16T12:59:47.661Z,17.68
2017-09-16T13:00:47.665Z,17.64
2017-09-16T13:01:47.411Z,17.57
2017-09-16T13:02:47.384Z,17.57
2017-09-16T13:03:47.662Z,17.57
2017-09-16T13:04:47.383Z,17.59
2017-09-16T13:05:47.668Z,17.63
2017-09-16T13:06:47.049Z,17.67